Time;durP1;ratioP1;P1;durP2;ratioP2;P2;SDS_P1;SDS_P2;PMS_P1;PMS_P2;Temp;Humidity;BMP_temperature;BMP_pressure;BME280_temperature;BME280_humidity;BME280_pressure;Samples;Min_cycle;Max_cycle;Signal;HPM_P1;HPM_P2
2021/06/28 00:00:59;;;;;;;;;;;15.00;99.90;;;;;;5038237;28;19936;-72
2021/06/28 00:03:26;;;;;;;;;;;15.00;99.90;;;;;;5038440;28;19925;-72
2021/06/28 00:05:53;;;;;;;;;;;15.00;99.90;;;;;;5038342;28;19935;-72
2021/06/28 00:08:20;;;;;;;;;;;14.90;99.90;;;;;;5038330;28;20241;-72
2021/06/28 00:10:46;;;;;;;;;;;14.90;99.90;;;;;;5038055;28;19933;-72
2021/06/28 00:13:13;;;;;;;;;;;14.90;99.90;;;;;;5037986;28;19925;-72
2021/06/28 00:15:42;;;;;;;;;;;14.90;99.90;;;;;;5038010;28;19932;-72
2021/06/28 00:18:09;;;;;;;;;;;14.90;99.90;;;;;;5038170;28;19925;-72
2021/06/28 00:20:36;;;;;;;;;;;14.80;99.90;;;;;;5037878;28;20354;-72
2021/06/28 00:23:03;;;;;;;;;;;14.70;99.90;;;;;;5037920;28;19931;-72
2021/06/28 00:25:29;;;;;;;;;;;14.70;99.90;;;;;;5037873;28;20020;-72
2021/06/28 00:27:56;;;;;;;;;;;14.70;99.90;;;;;;5037862;28;19925;-72
2021/06/28 00:30:23;;;;;;;;;;;14.60;99.90;;;;;;5037641;28;20015;-72
2021/06/28 00:32:51;;;;;;;;;;;14.50;99.90;;;;;;5037842;28;19925;-72
2021/06/28 00:35:20;;;;;;;;;;;14.50;99.90;;;;;;5037608;28;20392;-72
2021/06/28 00:37:47;;;;;;;;;;;14.50;99.90;;;;;;5037566;28;19925;-72
2021/06/28 00:40:15;;;;;;;;;;;14.40;99.90;;;;;;5037593;28;19925;-72
2021/06/28 00:42:42;;;;;;;;;;;14.40;99.90;;;;;;5037014;28;19925;-72
2021/06/28 00:45:18;;;;;;;;;;;14.50;99.90;;;;;;5037513;28;19933;-72
2021/06/28 00:47:45;;;;;;;;;;;14.40;99.90;;;;;;5037443;28;20246;-72
2021/06/28 00:50:14;;;;;;;;;;;14.50;99.90;;;;;;5037628;28;19935;-72
2021/06/28 00:52:41;;;;;;;;;;;14.50;99.90;;;;;;5037466;28;19925;-72
2021/06/28 00:55:09;;;;;;;;;;;14.50;99.90;;;;;;5036898;28;19925;-72
2021/06/28 00:57:35;;;;;;;;;;;14.50;99.90;;;;;;5037032;28;20388;-72
2021/06/28 01:00:02;;;;;;;;;;;14.50;99.90;;;;;;5037197;28;19925;-72
2021/06/28 01:02:29;;;;;;;;;;;14.50;99.90;;;;;;5037023;28;19956;-72
2021/06/28 01:04:56;;;;;;;;;;;14.60;99.90;;;;;;5037217;28;19932;-72
2021/06/28 01:07:24;;;;;;;;;;;14.60;99.90;;;;;;5036301;28;20280;-72
2021/06/28 01:09:51;;;;;;;;;;;14.60;99.90;;;;;;5036981;28;19931;-72
2021/06/28 01:12:18;;;;;;;;;;;14.60;99.90;;;;;;5037102;28;19939;-72
2021/06/28 01:14:45;;;;;;;;;;;14.60;99.90;;;;;;5037154;28;19925;-72
2021/06/28 01:17:12;;;;;;;;;;;14.70;99.90;;;;;;5036977;28;19925;-72
2021/06/28 01:19:39;;;;;;;;;;;14.70;99.90;;;;;;5036965;28;19936;-72
2021/06/28 01:22:06;;;;;;;;;;;14.70;99.90;;;;;;5036825;28;20261;-72
2021/06/28 01:24:34;;;;;;;;;;;14.70;99.90;;;;;;5036617;28;19925;-72
2021/06/28 01:27:01;;;;;;;;;;;14.70;99.90;;;;;;5036895;28;19925;-72
2021/06/28 01:29:28;;;;;;;;;;;14.70;99.90;;;;;;5036867;28;19929;-72
2021/06/28 01:31:55;;;;;;;;;;;14.70;99.90;;;;;;5036674;28;19943;-72
2021/06/28 01:34:22;;;;;;;;;;;14.70;99.90;;;;;;5036498;28;19932;-72
2021/06/28 01:36:48;;;;;;;;;;;14.60;99.90;;;;;;5036535;28;19929;-72
2021/06/28 01:39:15;;;;;;;;;;;14.60;99.90;;;;;;5036351;28;19925;-72
2021/06/28 01:41:44;;;;;;;;;;;14.60;99.90;;;;;;5036398;28;19925;-72
2021/06/28 01:44:10;;;;;;;;;;;14.60;99.90;;;;;;5036575;28;19929;-72
2021/06/28 01:46:37;;;;;;;;;;;14.60;99.90;;;;;;5036410;28;19925;-72
2021/06/28 01:49:04;;;;;;;;;;;14.60;99.90;;;;;;5036394;28;19925;-72
2021/06/28 01:51:31;;;;;;;;;;;14.50;99.90;;;;;;5036195;28;19925;-72
2021/06/28 01:53:58;;;;;;;;;;;14.50;99.90;;;;;;5035251;28;19925;-72
2021/06/28 01:56:25;;;;;;;;;;;14.50;99.90;;;;;;5036328;28;19925;-72
2021/06/28 01:58:53;;;;;;;;;;;14.50;99.90;;;;;;5036050;28;19924;-72
2021/06/28 02:01:21;;;;;;;;;;;14.40;99.90;;;;;;5036133;28;19935;-72
2021/06/28 02:03:48;;;;;;;;;;;14.40;99.90;;;;;;5036075;28;20085;-72
2021/06/28 02:06:15;;;;;;;;;;;14.40;99.90;;;;;;5036011;28;19925;-72
2021/06/28 02:08:42;;;;;;;;;;;14.30;99.90;;;;;;5035773;28;19929;-72
2021/06/28 02:11:08;;;;;;;;;;;14.30;99.90;;;;;;5035818;28;20238;-72
2021/06/28 02:13:36;;;;;;;;;;;14.30;99.90;;;;;;5035861;28;19976;-72
2021/06/28 02:16:04;;;;;;;;;;;14.30;99.90;;;;;;5035697;28;19925;-72
2021/06/28 02:18:31;;;;;;;;;;;14.20;99.90;;;;;;5035751;28;20268;-72
2021/06/28 02:20:58;;;;;;;;;;;14.20;99.90;;;;;;5035774;28;19929;-72
2021/06/28 02:23:27;;;;;;;;;;;14.20;99.90;;;;;;5035558;28;20363;-72
2021/06/28 02:25:55;;;;;;;;;;;14.10;99.90;;;;;;5035739;28;20356;-72
2021/06/28 02:28:22;;;;;;;;;;;14.10;99.90;;;;;;5035640;28;19933;-72
2021/06/28 02:30:49;;;;;;;;;;;14.20;99.90;;;;;;5035629;28;19991;-72
2021/06/28 02:33:17;;;;;;;;;;;14.20;99.90;;;;;;5035385;28;20371;-72
2021/06/28 02:35:44;;;;;;;;;;;14.20;99.90;;;;;;5035439;28;19925;-72
2021/06/28 02:38:11;;;;;;;;;;;14.20;99.90;;;;;;5035791;28;20401;-72
2021/06/28 02:40:38;;;;;;;;;;;14.20;99.90;;;;;;5035362;28;19935;-72
2021/06/28 02:43:05;;;;;;;;;;;14.20;99.90;;;;;;5035439;28;19933;-72
2021/06/28 02:45:32;;;;;;;;;;;14.10;99.90;;;;;;5035341;28;19935;-72
2021/06/28 02:47:59;;;;;;;;;;;14.10;99.90;;;;;;5035273;28;20315;-72
2021/06/28 02:50:27;;;;;;;;;;;14.10;99.90;;;;;;5035081;28;19925;-72
2021/06/28 02:52:54;;;;;;;;;;;14.10;99.90;;;;;;5035400;28;19932;-72
2021/06/28 02:55:20;;;;;;;;;;;14.10;99.90;;;;;;5035335;28;19925;-72
2021/06/28 02:57:47;;;;;;;;;;;14.10;99.90;;;;;;5035039;28;20250;-72
2021/06/28 03:00:15;;;;;;;;;;;14.10;99.90;;;;;;5035073;28;19925;-72
2021/06/28 03:02:42;;;;;;;;;;;14.10;99.90;;;;;;5035051;28;19925;-72
2021/06/28 03:05:09;;;;;;;;;;;14.00;99.90;;;;;;5035130;28;19933;-72
2021/06/28 03:07:37;;;;;;;;;;;14.00;99.90;;;;;;5034718;28;19925;-72
2021/06/28 03:10:04;;;;;;;;;;;14.00;99.90;;;;;;5035106;28;19935;-72
2021/06/28 03:12:31;;;;;;;;;;;14.00;99.90;;;;;;5035025;28;19925;-72
2021/06/28 03:14:58;;;;;;;;;;;14.00;99.90;;;;;;5034962;28;20023;-72
2021/06/28 03:17:25;;;;;;;;;;;14.00;99.90;;;;;;5034816;28;20273;-72
2021/06/28 03:19:52;;;;;;;;;;;14.00;99.90;;;;;;5034852;28;19925;-72
2021/06/28 03:22:19;;;;;;;;;;;14.00;99.90;;;;;;5034887;28;20265;-72
2021/06/28 03:24:47;;;;;;;;;;;14.00;99.90;;;;;;5034815;28;19925;-72
2021/06/28 03:27:14;;;;;;;;;;;13.90;99.90;;;;;;5034934;28;19925;-72
2021/06/28 03:29:41;;;;;;;;;;;13.90;99.90;;;;;;5034840;28;20027;-72
2021/06/28 03:32:08;;;;;;;;;;;13.90;99.90;;;;;;5034764;28;19935;-72
2021/06/28 03:34:35;;;;;;;;;;;13.80;99.90;;;;;;5034902;28;20043;-72
2021/06/28 03:37:01;;;;;;;;;;;13.80;99.90;;;;;;5034831;28;20021;-72
2021/06/28 03:39:28;;;;;;;;;;;13.80;99.90;;;;;;5034894;28;20284;-72
2021/06/28 03:41:57;;;;;;;;;;;13.70;99.90;;;;;;5034695;28;19925;-72
2021/06/28 03:44:24;;;;;;;;;;;13.70;99.90;;;;;;5034795;28;20007;-72
2021/06/28 03:46:51;;;;;;;;;;;13.70;99.90;;;;;;5034813;28;20000;-72
2021/06/28 03:49:17;;;;;;;;;;;13.70;99.90;;;;;;5034575;28;20313;-72
2021/06/28 03:51:44;;;;;;;;;;;13.70;99.90;;;;;;5034652;28;19939;-72
2021/06/28 03:54:11;;;;;;;;;;;13.80;99.90;;;;;;5034508;28;19925;-72
2021/06/28 03:56:38;;;;;;;;;;;13.80;99.90;;;;;;5034662;28;19931;-72
2021/06/28 03:59:06;;;;;;;;;;;13.80;99.90;;;;;;5034707;28;19925;-72
2021/06/28 04:01:33;;;;;;;;;;;13.90;99.90;;;;;;5034601;28;20371;-72
2021/06/28 04:04:00;;;;;;;;;;;13.90;99.90;;;;;;5034469;28;19929;-72
2021/06/28 04:06:27;;;;;;;;;;;14.00;99.90;;;;;;5034478;28;19925;-72
2021/06/28 04:08:53;;;;;;;;;;;14.00;99.90;;;;;;5034271;28;20016;-72
2021/06/28 04:11:20;;;;;;;;;;;14.10;99.90;;;;;;5034643;28;19939;-72
2021/06/28 04:13:47;;;;;;;;;;;14.10;99.90;;;;;;5034389;28;19936;-72
2021/06/28 04:16:15;;;;;;;;;;;14.10;99.90;;;;;;5035256;28;20308;-72
2021/06/28 04:18:42;;;;;;;;;;;14.10;99.90;;;;;;5038222;28;19925;-72
2021/06/28 04:21:09;;;;;;;;;;;14.10;99.90;;;;;;5038024;28;19924;-72
2021/06/28 04:23:36;;;;;;;;;;;14.00;99.90;;;;;;5038023;28;19954;-72
2021/06/28 04:26:03;;;;;;;;;;;14.00;99.90;;;;;;5037828;28;20333;-72
2021/06/28 04:28:30;;;;;;;;;;;13.90;99.90;;;;;;5037877;28;19967;-72
2021/06/28 04:30:57;;;;;;;;;;;14.00;99.90;;;;;;5038004;28;20388;-72
2021/06/28 04:33:25;;;;;;;;;;;14.00;99.90;;;;;;5037786;28;19925;-72
2021/06/28 04:35:52;;;;;;;;;;;14.00;99.90;;;;;;5037517;28;19924;-72
2021/06/28 04:38:18;;;;;;;;;;;14.00;99.90;;;;;;5037641;28;20269;-72
2021/06/28 04:40:46;;;;;;;;;;;14.00;99.90;;;;;;5037495;28;19924;-72
2021/06/28 04:43:12;;;;;;;;;;;14.00;99.90;;;;;;5037578;28;19925;-72
2021/06/28 04:45:39;;;;;;;;;;;14.10;99.90;;;;;;5037491;28;19925;-72
2021/06/28 04:48:06;;;;;;;;;;;14.10;99.90;;;;;;5037502;28;19925;-72
2021/06/28 04:50:35;;;;;;;;;;;14.10;99.90;;;;;;5037597;28;19978;-72
2021/06/28 04:53:01;;;;;;;;;;;14.10;99.90;;;;;;5037340;28;19929;-72
2021/06/28 04:55:28;;;;;;;;;;;14.10;99.90;;;;;;5037412;28;19935;-72
2021/06/28 04:57:56;;;;;;;;;;;14.10;99.90;;;;;;5037135;28;19925;-72
2021/06/28 05:00:23;;;;;;;;;;;14.10;99.90;;;;;;5037113;28;19936;-72
2021/06/28 05:02:50;;;;;;;;;;;14.20;99.90;;;;;;5037148;28;20254;-72
2021/06/28 05:05:17;;;;;;;;;;;14.20;99.90;;;;;;5037325;28;19925;-72
2021/06/28 05:07:45;;;;;;;;;;;14.20;99.90;;;;;;5036979;28;20258;-72
2021/06/28 05:10:15;;;;;;;;;;;14.30;99.90;;;;;;5036426;28;20226;-72
2021/06/28 05:12:41;;;;;;;;;;;14.30;99.90;;;;;;5037002;28;19924;-72
2021/06/28 05:15:09;;;;;;;;;;;14.40;99.90;;;;;;5036789;28;19944;-72
2021/06/28 05:17:36;;;;;;;;;;;14.40;99.90;;;;;;5037058;28;19929;-72
2021/06/28 05:20:03;;;;;;;;;;;14.50;99.90;;;;;;5037017;28;20256;-72
2021/06/28 05:22:30;;;;;;;;;;;14.60;99.90;;;;;;5036779;28;19925;-72
2021/06/28 05:24:58;;;;;;;;;;;14.60;99.90;;;;;;5036866;28;20070;-72
2021/06/28 05:27:25;;;;;;;;;;;14.60;99.90;;;;;;5036771;28;19939;-72
2021/06/28 05:29:55;;;;;;;;;;;14.70;99.90;;;;;;5036703;28;20367;-72
2021/06/28 05:32:22;;;;;;;;;;;14.70;99.90;;;;;;5036766;28;20027;-72
2021/06/28 05:34:49;;;;;;;;;;;14.80;99.90;;;;;;5036641;28;19925;-72
2021/06/28 05:37:16;;;;;;;;;;;14.80;99.90;;;;;;5036746;28;19924;-72
2021/06/28 05:39:43;;;;;;;;;;;14.90;99.90;;;;;;5036650;28;19935;-72
2021/06/28 05:42:11;;;;;;;;;;;15.00;99.90;;;;;;5036388;28;19929;-72
2021/06/28 05:44:38;;;;;;;;;;;15.10;99.90;;;;;;5036262;28;19925;-72
2021/06/28 05:47:05;;;;;;;;;;;15.20;99.90;;;;;;5036425;28;20345;-72
2021/06/28 05:49:34;;;;;;;;;;;15.30;99.90;;;;;;5036535;28;19926;-72
2021/06/28 05:52:01;;;;;;;;;;;15.50;99.90;;;;;;5036493;28;19928;-72
2021/06/28 05:54:28;;;;;;;;;;;15.60;99.90;;;;;;5036231;28;19931;-72
2021/06/28 05:56:55;;;;;;;;;;;15.70;99.90;;;;;;5036370;28;19925;-72
2021/06/28 05:59:23;;;;;;;;;;;15.70;99.90;;;;;;5036348;28;19925;-72
2021/06/28 06:01:50;;;;;;;;;;;15.70;99.90;;;;;;5036031;28;20261;-72
2021/06/28 06:04:17;;;;;;;;;;;15.80;99.90;;;;;;5036063;28;19925;-72
2021/06/28 06:06:43;;;;;;;;;;;15.80;99.90;;;;;;5036102;28;19931;-72
2021/06/28 06:09:10;;;;;;;;;;;16.00;99.90;;;;;;5035768;28;20024;-72
2021/06/28 06:11:37;;;;;;;;;;;16.10;99.90;;;;;;5036096;28;19925;-72
2021/06/28 06:14:04;;;;;;;;;;;16.20;99.90;;;;;;5035984;28;20265;-72
2021/06/28 06:16:32;;;;;;;;;;;16.20;99.90;;;;;;5035843;28;19951;-72
2021/06/28 06:18:59;;;;;;;;;;;16.40;99.90;;;;;;5035769;28;19936;-72
2021/06/28 06:21:26;;;;;;;;;;;16.50;99.90;;;;;;5035692;28;19925;-72
2021/06/28 06:23:53;;;;;;;;;;;16.60;99.90;;;;;;5035665;28;19935;-72
2021/06/28 06:26:20;;;;;;;;;;;16.60;99.90;;;;;;5035554;28;19935;-72
2021/06/28 06:28:47;;;;;;;;;;;16.50;99.90;;;;;;5035828;28;19925;-72
2021/06/28 06:31:13;;;;;;;;;;;16.40;99.90;;;;;;5035725;28;19925;-72
2021/06/28 06:33:42;;;;;;;;;;;16.30;99.90;;;;;;5035442;28;20226;-72
2021/06/28 06:36:08;;;;;;;;;;;16.20;99.90;;;;;;5035377;28;19925;-72
2021/06/28 06:38:35;;;;;;;;;;;16.10;99.90;;;;;;5035175;28;20367;-72
2021/06/28 06:41:02;;;;;;;;;;;16.10;99.90;;;;;;5035129;28;19929;-72
2021/06/28 06:43:29;;;;;;;;;;;16.00;99.90;;;;;;5035431;28;19932;-72
2021/06/28 06:45:56;;;;;;;;;;;16.00;99.90;;;;;;5035396;28;19925;-72
2021/06/28 06:48:23;;;;;;;;;;;16.00;99.90;;;;;;5035210;28;20359;-72
2021/06/28 06:50:51;;;;;;;;;;;16.10;99.90;;;;;;5035188;28;19939;-72
2021/06/28 06:53:18;;;;;;;;;;;16.00;99.90;;;;;;5035258;28;20027;-72
2021/06/28 06:55:45;;;;;;;;;;;16.10;99.90;;;;;;5035396;28;19925;-72
2021/06/28 06:58:12;;;;;;;;;;;16.10;99.90;;;;;;5035395;28;19929;-72
2021/06/28 07:00:39;;;;;;;;;;;16.10;99.90;;;;;;5035217;28;19935;-72
2021/06/28 07:03:06;;;;;;;;;;;16.20;99.90;;;;;;5035259;28;19925;-72
2021/06/28 07:05:33;;;;;;;;;;;16.10;99.90;;;;;;5034945;28;19926;-72
2021/06/28 07:08:01;;;;;;;;;;;16.10;99.90;;;;;;5035171;28;19925;-72
2021/06/28 07:10:28;;;;;;;;;;;16.10;99.90;;;;;;5034980;28;19925;-72
2021/06/28 07:12:55;;;;;;;;;;;16.10;99.90;;;;;;5035102;28;19935;-72
2021/06/28 07:15:22;;;;;;;;;;;16.10;99.90;;;;;;5035069;28;19929;-72
2021/06/28 07:17:49;;;;;;;;;;;16.10;99.90;;;;;;5035052;28;19925;-72
2021/06/28 07:20:17;;;;;;;;;;;16.10;99.90;;;;;;5035163;28;20023;-72
2021/06/28 07:22:43;;;;;;;;;;;16.20;99.90;;;;;;5034909;28;20360;-72
2021/06/28 07:25:12;;;;;;;;;;;16.10;99.90;;;;;;5034880;28;19939;-72
2021/06/28 07:27:39;;;;;;;;;;;16.20;99.90;;;;;;5034958;28;19932;-72
2021/06/28 07:30:07;;;;;;;;;;;16.20;99.90;;;;;;5034952;28;19939;-72
2021/06/28 07:32:33;;;;;;;;;;;16.30;99.90;;;;;;5034887;28;19931;-72
2021/06/28 07:35:00;;;;;;;;;;;16.30;99.90;;;;;;5034932;28;19925;-72
2021/06/28 07:37:27;;;;;;;;;;;16.30;99.90;;;;;;5034893;28;19925;-72
2021/06/28 07:39:54;;;;;;;;;;;16.30;99.90;;;;;;5034899;28;19951;-72
2021/06/28 07:42:24;;;;;;;;;;;16.40;99.90;;;;;;5034865;28;20019;-72
2021/06/28 07:44:50;;;;;;;;;;;16.40;99.90;;;;;;5034771;28;20419;-72
2021/06/28 07:47:17;;;;;;;;;;;16.40;99.90;;;;;;5034703;28;19925;-72
2021/06/28 07:49:44;;;;;;;;;;;16.50;99.90;;;;;;5034541;28;19932;-72
2021/06/28 07:52:11;;;;;;;;;;;16.50;99.90;;;;;;5036810;28;19924;-72
2021/06/28 07:54:40;;;;;;;;;;;16.50;99.90;;;;;;5038544;28;20254;-72
2021/06/28 07:57:07;;;;;;;;;;;16.50;99.90;;;;;;5038456;28;20325;-72
2021/06/28 07:59:35;;;;;;;;;;;16.50;99.90;;;;;;5038365;28;19925;-72
2021/06/28 08:02:02;;;;;;;;;;;16.50;99.90;;;;;;5038686;28;20253;-72
2021/06/28 08:04:29;;;;;;;;;;;16.60;99.90;;;;;;5038584;28;19925;-72
2021/06/28 08:06:56;;;;;;;;;;;16.60;99.90;;;;;;5038031;28;20284;-72
2021/06/28 08:09:22;;;;;;;;;;;16.80;99.90;;;;;;5037516;28;19964;-72
2021/06/28 08:11:49;;;;;;;;;;;16.90;99.90;;;;;;5038059;28;20361;-72
2021/06/28 08:14:17;;;;;;;;;;;17.20;99.90;;;;;;5037840;28;19926;-72
2021/06/28 08:16:45;;;;;;;;;;;17.60;99.90;;;;;;5038141;28;20028;-72
2021/06/28 08:19:12;;;;;;;;;;;17.90;99.90;;;;;;5038211;28;20249;-72
2021/06/28 08:21:39;;;;;;;;;;;18.20;99.90;;;;;;5038201;28;19925;-72
2021/06/28 08:24:06;;;;;;;;;;;18.40;99.90;;;;;;5037867;28;19932;-72
2021/06/28 08:26:33;;;;;;;;;;;18.40;99.90;;;;;;5037864;28;19929;-72
2021/06/28 08:29:02;;;;;;;;;;;18.40;99.90;;;;;;5037778;28;20266;-72
2021/06/28 08:31:29;;;;;;;;;;;18.40;99.90;;;;;;5037939;28;19936;-73
2021/06/28 08:33:58;;;;;;;;;;;18.40;99.90;;;;;;5037820;28;19925;-72
2021/06/28 08:36:24;;;;;;;;;;;18.30;99.90;;;;;;5037728;28;19935;-73
2021/06/28 08:38:51;;;;;;;;;;;18.30;99.90;;;;;;5037658;28;19925;-72
2021/06/28 08:41:18;;;;;;;;;;;18.30;99.90;;;;;;5037614;28;19935;-72
2021/06/28 08:43:45;;;;;;;;;;;18.20;99.90;;;;;;5037527;28;20261;-73
2021/06/28 08:46:12;;;;;;;;;;;18.20;99.90;;;;;;5037537;28;19924;-73
2021/06/28 08:48:40;;;;;;;;;;;18.20;99.90;;;;;;5037668;28;20059;-73
2021/06/28 08:51:09;;;;;;;;;;;18.30;99.90;;;;;;5037402;28;20416;-73
2021/06/28 08:53:35;;;;;;;;;;;18.40;99.90;;;;;;5037406;28;19939;-73
2021/06/28 08:56:07;;;;;;;;;;;18.50;99.90;;;;;;5037192;28;19925;-72
2021/06/28 08:58:34;;;;;;;;;;;18.60;99.90;;;;;;5037285;28;19925;-72
2021/06/28 09:01:00;;;;;;;;;;;18.50;99.90;;;;;;5037418;28;19936;-73
2021/06/28 09:03:27;;;;;;;;;;;18.60;99.90;;;;;;5036909;28;19925;-72
2021/06/28 09:05:59;;;;;;;;;;;18.70;99.90;;;;;;5037175;28;19951;-73
2021/06/28 09:08:27;;;;;;;;;;;18.90;99.90;;;;;;5036943;28;19936;-73
2021/06/28 09:10:54;;;;;;;;;;;19.00;99.90;;;;;;5036998;28;19925;-73
2021/06/28 09:13:35;;;;;;;;;;;19.10;99.90;;;;;;5037259;28;19940;-73
2021/06/28 09:16:11;;;;;;;;;;;19.10;99.90;;;;;;5037124;28;19935;-73
2021/06/28 09:18:38;;;;;;;;;;;19.10;99.90;;;;;;5037009;28;19932;-72
2021/06/28 09:21:06;;;;;;;;;;;19.20;99.90;;;;;;5036619;28;20353;-72
2021/06/28 09:23:34;;;;;;;;;;;19.00;99.90;;;;;;5036712;28;19935;-73
2021/06/28 09:26:01;;;;;;;;;;;18.90;99.90;;;;;;5036993;28;20268;-73
2021/06/28 09:28:32;;;;;;;;;;;18.80;99.90;;;;;;5036853;28;19944;-73
2021/06/28 09:30:59;;;;;;;;;;;18.70;99.90;;;;;;5036765;28;19925;-73
2021/06/28 09:33:25;;;;;;;;;;;18.60;99.90;;;;;;5036625;28;19947;-72
2021/06/28 09:35:52;;;;;;;;;;;18.60;99.90;;;;;;5036456;28;20242;-72
2021/06/28 09:38:36;;;;;;;;;;;18.50;99.90;;;;;;5036562;28;20253;-72
2021/06/28 09:41:22;;;;;;;;;;;18.40;99.90;;;;;;5036498;28;19925;-73
2021/06/28 09:43:48;;;;;;;;;;;18.30;99.90;;;;;;5036334;28;20412;-72
2021/06/28 09:46:18;;;;;;;;;;;18.30;99.90;;;;;;5036205;28;20338;-73
2021/06/28 09:48:48;;;;;;;;;;;18.20;99.90;;;;;;5036338;28;19937;-72
2021/06/28 09:51:23;;;;;;;;;;;18.20;99.90;;;;;;5036502;28;19925;-73
2021/06/28 09:53:52;;;;;;;;;;;18.10;99.90;;;;;;5036244;28;19925;-72
2021/06/28 09:56:28;;;;;;;;;;;18.10;99.90;;;;;;5036053;28;20375;-73
2021/06/28 09:58:55;;;;;;;;;;;18.10;99.90;;;;;;5036035;28;20430;-72
2021/06/28 10:01:23;;;;;;;;;;;18.10;99.90;;;;;;5036083;28;19935;-73
2021/06/28 10:03:52;;;;;;;;;;;18.00;99.90;;;;;;5036194;28;19925;-72
2021/06/28 10:06:28;;;;;;;;;;;18.00;99.90;;;;;;5035938;28;19931;-73
2021/06/28 10:09:03;;;;;;;;;;;18.00;99.90;;;;;;5035753;28;19936;-73
2021/06/28 10:11:30;;;;;;;;;;;18.00;99.90;;;;;;5035911;28;19936;-73
2021/06/28 10:13:57;;;;;;;;;;;17.90;99.90;;;;;;5034859;28;19943;-72
2021/06/28 10:16:25;;;;;;;;;;;17.90;99.90;;;;;;5035481;28;19939;-73
2021/06/28 10:18:52;;;;;;;;;;;17.80;99.90;;;;;;5035811;28;19925;-72
2021/06/28 10:21:19;;;;;;;;;;;17.80;99.90;;;;;;5035854;28;19936;-72
2021/06/28 10:23:46;;;;;;;;;;;17.70;99.90;;;;;;5035722;28;19925;-69
2021/06/28 10:26:14;;;;;;;;;;;17.70;99.90;;;;;;5035622;28;20376;-73
2021/06/28 10:28:41;;;;;;;;;;;17.60;99.90;;;;;;5035592;28;19925;-72
2021/06/28 10:31:08;;;;;;;;;;;17.60;99.90;;;;;;5035565;28;20003;-72
2021/06/28 10:33:35;;;;;;;;;;;17.70;99.90;;;;;;5034611;28;20340;-71
2021/06/28 10:36:02;;;;;;;;;;;17.70;99.90;;;;;;5035336;28;19925;-71
2021/06/28 10:38:42;;;;;;;;;;;17.70;99.90;;;;;;5035405;28;19925;-71
2021/06/28 10:41:09;;;;;;;;;;;17.80;99.90;;;;;;5035688;28;19991;-71
2021/06/28 10:43:37;;;;;;;;;;;17.90;99.90;;;;;;5035515;28;19936;-71
2021/06/28 10:46:04;;;;;;;;;;;17.90;99.90;;;;;;5035277;28;19929;-71
2021/06/28 10:48:32;;;;;;;;;;;18.00;99.90;;;;;;5035347;28;19967;-71
2021/06/28 10:50:59;;;;;;;;;;;18.00;99.90;;;;;;5035393;28;19935;-71
2021/06/28 10:53:45;;;;;;;;;;;18.00;99.90;;;;;;5035237;28;20272;-71
2021/06/28 10:59:01;;;;;;;;;;;17.90;99.90;;;;;;5033056;28;19921;-71
2021/06/28 11:01:34;;;;;;;;;;;17.90;99.90;;;;;;5035159;28;19972;-71
2021/06/28 11:04:05;;;;;;;;;;;17.90;99.90;;;;;;5035354;28;19933;-71
2021/06/28 11:06:32;;;;;;;;;;;17.90;99.90;;;;;;5035229;28;19963;-71
2021/06/28 11:09:04;;;;;;;;;;;17.80;99.90;;;;;;5034997;28;19925;-71
2021/06/28 11:11:50;;;;;;;;;;;17.70;99.90;;;;;;5035145;28;20257;-71
2021/06/28 11:17:11;;;;;;;;;;;17.70;99.90;;;;;;5113249;27;19912;-72
2021/06/28 11:19:53;;;;;;;;;;;17.60;99.90;;;;;;5112982;28;19931;-72
2021/06/28 11:22:36;;;;;;;;;;;17.60;99.90;;;;;;5113008;28;20049;-72
2021/06/28 11:25:04;;;;;;;;;;;17.60;99.90;;;;;;5113120;28;19924;-72
2021/06/28 11:27:31;;;;;;;;;;;17.50;99.90;;;;;;5113016;28;20405;-72
2021/06/28 11:29:58;;;;;;;;;;;17.50;99.90;;;;;;5112890;28;19925;-72
2021/06/28 11:32:26;;;;;;;;;;;17.50;99.90;;;;;;5112711;28;19934;-72
2021/06/28 11:34:53;;;;;;;;;;;17.50;99.90;;;;;;5112742;28;19924;-72
2021/06/28 11:37:20;;;;;;;;;;;17.40;99.90;;;;;;5112570;28;20026;-72
2021/06/28 11:39:53;;;;;;;;;;;17.50;99.90;;;;;;5112798;28;19932;-72
2021/06/28 11:42:22;;;;;;;;;;;17.50;99.90;;;;;;5112317;28;19923;-72
2021/06/28 11:44:50;;;;;;;;;;;17.50;99.90;;;;;;5112460;28;19932;-72
2021/06/28 11:47:16;;;;;;;;;;;17.50;99.90;;;;;;5112529;28;20244;-72
2021/06/28 11:49:45;;;;;;;;;;;17.40;99.90;;;;;;5111872;28;20346;-72
2021/06/28 11:52:14;;;;;;;;;;;17.40;99.90;;;;;;5112269;28;19924;-72
2021/06/28 11:54:41;;;;;;;;;;;17.30;99.90;;;;;;5112311;28;19934;-72
2021/06/28 11:57:09;;;;;;;;;;;17.40;99.90;;;;;;5112116;28;19924;-72
2021/06/28 11:59:40;;;;;;;;;;;17.30;99.90;;;;;;5111643;28;19924;-72
2021/06/28 12:02:08;;;;;;;;;;;17.30;99.90;;;;;;5112378;28;19924;-72
2021/06/28 12:04:35;;;;;;;;;;;17.40;99.90;;;;;;5112165;28;19967;-72
2021/06/28 12:07:05;;;;;;;;;;;17.40;99.90;;;;;;5112047;28;19923;-72
2021/06/28 12:09:33;;;;;;;;;;;17.40;99.90;;;;;;5112037;28;19939;-72
2021/06/28 12:12:01;;;;;;;;;;;17.40;99.90;;;;;;5111972;28;19923;-72
2021/06/28 12:14:28;;;;;;;;;;;17.40;99.90;;;;;;5111965;28;19924;-72
2021/06/28 12:16:55;;;;;;;;;;;17.40;99.90;;;;;;5111546;28;19924;-72
2021/06/28 12:19:22;;;;;;;;;;;17.40;99.90;;;;;;5112030;28;19923;-72
2021/06/28 12:21:49;;;;;;;;;;;17.40;99.90;;;;;;5111936;28;20044;-72
2021/06/28 12:24:18;;;;;;;;;;;17.40;99.90;;;;;;5111840;28;20332;-72
2021/06/28 12:26:58;;;;;;;;;;;17.40;99.90;;;;;;5108350;28;19925;-72
2021/06/28 12:29:29;;;;;;;;;;;17.40;99.90;;;;;;5097984;28;19924;-72
2021/06/28 12:32:03;;;;;;;;;;;17.40;99.90;;;;;;5098188;28;19934;-72
2021/06/28 12:34:30;;;;;;;;;;;17.40;99.90;;;;;;5097960;28;19971;-72
2021/06/28 12:36:56;;;;;;;;;;;17.40;99.90;;;;;;5097904;28;20339;-72
2021/06/28 12:39:25;;;;;;;;;;;17.40;99.90;;;;;;5097823;28;20359;-72
2021/06/28 12:41:52;;;;;;;;;;;17.50;99.90;;;;;;5097698;28;20280;-71
2021/06/28 12:44:19;;;;;;;;;;;17.40;99.90;;;;;;5097752;28;19928;-72
2021/06/28 12:46:46;;;;;;;;;;;17.40;99.90;;;;;;5097997;28;19924;-72
2021/06/28 12:49:13;;;;;;;;;;;17.40;99.90;;;;;;5097628;28;20225;-72
2021/06/28 12:51:40;;;;;;;;;;;17.40;99.90;;;;;;5097670;28;19924;-72
2021/06/28 12:54:21;;;;;;;;;;;17.40;99.90;;;;;;5097721;28;19935;-72
2021/06/28 12:56:50;;;;;;;;;;;17.40;99.90;;;;;;5097347;28;19938;-72
2021/06/28 12:59:32;;;;;;;;;;;17.50;99.90;;;;;;5097710;28;19924;-72
2021/06/28 13:01:59;;;;;;;;;;;17.50;99.90;;;;;;5097587;28;20360;-72
2021/06/28 13:04:27;;;;;;;;;;;17.50;99.90;;;;;;5097488;28;19947;-72
2021/06/28 13:06:55;;;;;;;;;;;17.50;99.90;;;;;;5097381;28;20373;-72
2021/06/28 13:09:24;;;;;;;;;;;17.60;99.90;;;;;;5097579;28;19985;-72
2021/06/28 13:11:52;;;;;;;;;;;17.60;99.90;;;;;;5097492;28;20022;-72
2021/06/28 13:14:26;;;;;;;;;;;17.60;99.90;;;;;;5097295;28;19924;-72
2021/06/28 13:17:04;;;;;;;;;;;17.70;99.90;;;;;;5097003;28;20015;-72
2021/06/28 13:19:31;;;;;;;;;;;17.70;99.90;;;;;;5097149;28;19974;-72
2021/06/28 13:21:59;;;;;;;;;;;17.80;99.90;;;;;;5097309;28;19932;-72
2021/06/28 13:24:26;;;;;;;;;;;17.90;99.90;;;;;;5097007;28;19935;-72
2021/06/28 13:26:59;;;;;;;;;;;18.00;99.90;;;;;;5096987;28;19934;-72
2021/06/28 13:29:30;;;;;;;;;;;18.10;99.90;;;;;;5097076;28;19924;-72
2021/06/28 13:31:57;;;;;;;;;;;18.20;99.90;;;;;;5096949;28;19924;-72
2021/06/28 13:34:25;;;;;;;;;;;18.40;99.90;;;;;;5096712;28;19924;-72
2021/06/28 13:37:05;;;;;;;;;;;18.50;99.90;;;;;;5096898;28;19969;-72
2021/06/28 13:39:36;;;;;;;;;;;18.60;99.90;;;;;;5095766;28;20393;-72
2021/06/28 13:42:04;;;;;;;;;;;18.60;99.90;;;;;;5096752;28;20275;-72
2021/06/28 13:44:31;;;;;;;;;;;18.70;99.90;;;;;;5096646;28;19924;-72
2021/06/28 13:47:08;;;;;;;;;;;18.80;99.90;;;;;;5090852;28;19932;-72
2021/06/28 13:49:38;;;;;;;;;;;18.90;99.90;;;;;;5095877;28;19942;-72
2021/06/28 13:52:05;;;;;;;;;;;18.90;99.90;;;;;;5096655;28;20271;-72
2021/06/28 13:54:33;;;;;;;;;;;19.00;99.90;;;;;;5096325;28;19938;-72
2021/06/28 13:57:00;;;;;;;;;;;19.00;99.90;;;;;;5096256;28;19935;-72
2021/06/28 13:59:28;;;;;;;;;;;19.00;99.90;;;;;;5096223;28;19924;-73
2021/06/28 14:01:55;;;;;;;;;;;19.00;99.90;;;;;;5096450;28;19977;-73
2021/06/28 14:04:21;;;;;;;;;;;19.00;99.90;;;;;;5096470;28;20019;-72
2021/06/28 14:06:48;;;;;;;;;;;19.00;99.90;;;;;;5096274;28;19930;-72
2021/06/28 14:09:15;;;;;;;;;;;19.00;99.90;;;;;;5096125;28;19973;-72
2021/06/28 14:11:42;;;;;;;;;;;19.10;99.90;;;;;;5096227;28;19935;-72
2021/06/28 14:14:09;;;;;;;;;;;19.20;99.90;;;;;;5095937;28;19969;-73
2021/06/28 14:16:38;;;;;;;;;;;19.20;99.90;;;;;;5095634;28;20256;-72
2021/06/28 14:19:04;;;;;;;;;;;19.20;99.90;;;;;;5095896;28;19934;-72
2021/06/28 14:21:32;;;;;;;;;;;19.20;99.90;;;;;;5095789;28;19924;-72
2021/06/28 14:23:58;;;;;;;;;;;19.20;99.90;;;;;;5095739;28;20353;-72
2021/06/28 14:26:25;;;;;;;;;;;19.20;99.90;;;;;;5095972;28;20252;-72